Itaquirai, Brazil
Current Conditions -  °F | °C
As of 3:45 PM on Sunday 21 Dec 2014 (Local Time) from SBPP Reporting Station
Thunderstorm Thunderstorm  
Wind Chill: 77°   Ceiling: 1500
Heat Index: 78°   Visibility: 0.5mi
Dew Point: 75°   Wind: 12mph
Humidity: 94%   Direction: 300°WNW
Pressure: 29.74"   Gusts: NA
Location:  23.47°S, 54.18°W
Report Text: SBPP 211845Z 30010KT 0800 +TSRA BKN015 FEW030CB 25/24 Q1007
Loading
Personal Weather Stations






























Interactive Weather Map New forecast layout! Learn more

10-Day Weather Forecast

Advertisements
Track Severe Weather on mobile